createdAt,value
2018-12-26T00:00:59.533Z,95.89
2018-12-26T00:01:59.523Z,95.89
2018-12-26T00:02:59.514Z,96.26
2018-12-26T00:03:59.507Z,95.89
2018-12-26T00:04:59.498Z,95.89
2018-12-26T00:05:59.491Z,95.89
2018-12-26T00:06:59.483Z,95.51
2018-12-26T00:07:59.481Z,95.79
2018-12-26T00:08:59.465Z,95.12
2018-12-26T00:09:59.456Z,95.51
2018-12-26T00:10:59.452Z,95.41
2018-12-26T00:11:59.443Z,95.22
2018-12-26T00:12:59.432Z,95.60
2018-12-26T00:13:59.425Z,95.03
2018-12-26T00:14:59.419Z,95.51
2018-12-26T00:15:59.412Z,95.32
2018-12-26T00:16:59.402Z,94.74
2018-12-26T00:17:59.393Z,94.37
2018-12-26T00:18:59.384Z,94.93
2018-12-26T00:19:59.478Z,94.93
2018-12-26T00:20:59.370Z,95.03
2018-12-26T00:21:59.359Z,94.74
2018-12-26T00:22:59.407Z,93.70
2018-12-26T00:23:59.469Z,93.79
2018-12-26T00:24:59.338Z,94.46
2018-12-26T00:26:01.834Z,93.99
2018-12-26T00:26:59.320Z,94.08
2018-12-26T00:27:59.314Z,93.99
2018-12-26T00:28:59.305Z,94.46
2018-12-26T00:29:59.295Z,94.46
2018-12-26T00:30:59.288Z,95.22
2018-12-26T00:31:59.280Z,94.74
2018-12-26T00:32:59.274Z,94.93
2018-12-26T00:33:59.265Z,94.46
2018-12-26T00:34:59.267Z,94.37
2018-12-26T00:35:59.248Z,94.46
2018-12-26T00:36:59.242Z,94.93
2018-12-26T00:37:59.235Z,95.22
2018-12-26T00:38:59.223Z,95.22
2018-12-26T00:39:59.216Z,94.46
2018-12-26T00:40:59.206Z,94.08
2018-12-26T00:41:59.200Z,94.37
2018-12-26T00:42:59.196Z,94.56
2018-12-26T00:43:59.201Z,94.74
2018-12-26T00:44:59.182Z,94.74
2018-12-26T00:45:59.164Z,93.89
2018-12-26T00:46:59.182Z,94.46
2018-12-26T00:47:59.155Z,95.22
2018-12-26T00:48:59.145Z,95.89
2018-12-26T00:49:59.230Z,95.89
2018-12-26T00:50:59.127Z,96.26
2018-12-26T00:51:59.119Z,96.26
2018-12-26T00:52:59.112Z,96.74
2018-12-26T00:53:59.102Z,96.08
2018-12-26T00:54:59.094Z,95.70
2018-12-26T00:55:59.087Z,95.79
2018-12-26T00:56:59.081Z,95.98
2018-12-26T00:57:59.070Z,96.08
2018-12-26T00:58:59.063Z,95.98
2018-12-26T00:59:59.152Z,96.17
2018-12-26T01:00:59.045Z,96.36
2018-12-26T01:01:59.040Z,95.98
2018-12-26T01:02:59.068Z,95.22
2018-12-26T01:03:59.046Z,95.79
2018-12-26T01:04:59.011Z,95.12
2018-12-26T01:05:59.004Z,95.41
2018-12-26T01:06:59.034Z,95.79
2018-12-26T01:07:58.990Z,96.84
2018-12-26T01:08:58.980Z,96.17
2018-12-26T01:09:58.973Z,96.74
2018-12-26T01:10:58.963Z,96.55
2018-12-26T01:11:58.957Z,97.03
2018-12-26T01:12:58.947Z,96.36
2018-12-26T01:13:58.940Z,96.65
2018-12-26T01:14:58.930Z,95.98
2018-12-26T01:15:58.923Z,96.08
2018-12-26T01:16:58.915Z,96.17
2018-12-26T01:17:58.906Z,96.36
2018-12-26T01:18:58.895Z,96.08
2018-12-26T01:19:58.890Z,96.84
2018-12-26T01:20:58.887Z,95.98
2018-12-26T01:21:58.872Z,95.79
2018-12-26T01:22:58.866Z,96.36
2018-12-26T01:23:58.856Z,96.08
2018-12-26T01:24:58.850Z,95.79
2018-12-26T01:25:58.852Z,95.79
2018-12-26T01:26:58.832Z,95.98
2018-12-26T01:27:58.828Z,96.26
2018-12-26T01:28:58.813Z,95.70
2018-12-26T01:29:58.818Z,95.89
2018-12-26T01:30:58.808Z,95.70
2018-12-26T01:31:58.796Z,95.89
2018-12-26T01:32:58.788Z,95.41
2018-12-26T01:33:58.774Z,95.51
2018-12-26T01:34:58.768Z,95.60
2018-12-26T01:35:58.759Z,95.51
2018-12-26T01:36:58.752Z,95.32
2018-12-26T01:37:58.744Z,95.12
2018-12-26T01:38:58.734Z,94.37
2018-12-26T01:39:58.729Z,94.65
2018-12-26T01:40:58.718Z,94.46
2018-12-26T01:41:58.711Z,94.27
2018-12-26T01:42:58.700Z,94.46
2018-12-26T01:43:58.693Z,94.93
2018-12-26T01:44:58.685Z,94.93
2018-12-26T01:45:58.681Z,95.12
2018-12-26T01:46:58.688Z,95.41
2018-12-26T01:47:58.661Z,95.79
2018-12-26T01:48:58.652Z,95.89
2018-12-26T01:49:58.644Z,95.79
2018-12-26T01:50:58.636Z,95.41
2018-12-26T01:51:58.629Z,96.08
2018-12-26T01:52:58.621Z,95.89
2018-12-26T01:53:58.613Z,95.89
2018-12-26T01:54:58.603Z,95.79
2018-12-26T01:55:58.596Z,95.98
2018-12-26T01:56:58.589Z,95.79
2018-12-26T01:57:58.580Z,95.98
2018-12-26T01:58:58.652Z,95.98
2018-12-26T01:59:58.564Z,95.89
2018-12-26T02:00:58.556Z,96.08
2018-12-26T02:01:58.551Z,96.26
2018-12-26T02:02:58.541Z,96.41
2018-12-26T02:03:58.534Z,96.45
2018-12-26T02:04:58.537Z,96.45
2018-12-26T02:05:58.514Z,96.74
2018-12-26T02:06:58.507Z,96.36
2018-12-26T02:07:58.496Z,96.55
2018-12-26T02:08:58.490Z,96.55
2018-12-26T02:09:58.567Z,96.36
2018-12-26T02:10:58.472Z,96.93
2018-12-26T02:11:58.467Z,96.17
2018-12-26T02:12:58.456Z,96.36
2018-12-26T02:13:58.447Z,96.17
2018-12-26T02:14:58.443Z,95.79
2018-12-26T02:15:58.432Z,96.08
2018-12-26T02:16:58.421Z,96.08
2018-12-26T02:17:58.417Z,95.32
2018-12-26T02:18:58.407Z,95.79
2018-12-26T02:19:58.396Z,95.41
2018-12-26T02:20:58.388Z,95.51
2018-12-26T02:21:58.381Z,95.60
2018-12-26T02:22:58.374Z,95.41
2018-12-26T02:23:58.367Z,95.03
2018-12-26T02:24:58.355Z,95.32
2018-12-26T02:25:58.346Z,95.79
2018-12-26T02:26:58.337Z,95.98
2018-12-26T02:27:58.334Z,96.22
2018-12-26T02:28:58.323Z,96.08
2018-12-26T02:29:58.315Z,95.79
2018-12-26T02:30:58.306Z,95.41
2018-12-26T02:31:58.301Z,95.41
2018-12-26T02:32:58.291Z,95.03
2018-12-26T02:33:58.282Z,94.37
2018-12-26T02:34:58.273Z,94.37
2018-12-26T02:35:58.268Z,94.56
2018-12-26T02:36:58.260Z,94.18
2018-12-26T02:37:58.249Z,94.27
2018-12-26T02:38:58.238Z,93.99
2018-12-26T02:39:58.231Z,93.51
2018-12-26T02:40:58.224Z,94.56
2018-12-26T02:41:58.215Z,93.99
2018-12-26T02:42:58.217Z,94.37
2018-12-26T02:43:58.199Z,95.32
2018-12-26T02:44:58.192Z,94.89
2018-12-26T02:45:58.183Z,95.08
2018-12-26T02:46:58.301Z,95.27
2018-12-26T02:47:58.169Z,95.36
2018-12-26T02:48:58.158Z,94.42
2018-12-26T02:49:58.159Z,95.17
2018-12-26T02:50:58.140Z,95.17
2018-12-26T02:51:58.138Z,96.12
2018-12-26T02:52:58.126Z,96.69
2018-12-26T02:53:58.116Z,95.94
2018-12-26T02:54:58.108Z,95.84
2018-12-26T02:55:58.104Z,95.84
2018-12-26T02:56:58.098Z,96.12
2018-12-26T02:57:58.084Z,95.55
2018-12-26T02:58:58.073Z,94.89
2018-12-26T02:59:58.067Z,94.42
2018-12-26T03:00:58.059Z,93.84
2018-12-26T03:01:58.049Z,94.42
2018-12-26T03:02:58.044Z,95.17
2018-12-26T03:03:58.035Z,95.27
2018-12-26T03:04:58.024Z,95.36
2018-12-26T03:05:58.014Z,95.75
2018-12-26T03:06:58.006Z,96.03
2018-12-26T03:07:57.999Z,96.12
2018-12-26T03:08:57.990Z,96.31
2018-12-26T03:09:57.982Z,95.46
2018-12-26T03:10:57.972Z,96.69
2018-12-26T03:11:57.966Z,96.69
2018-12-26T03:12:57.959Z,96.50
2018-12-26T03:13:57.987Z,96.22
2018-12-26T03:14:57.940Z,96.60
2018-12-26T03:15:57.933Z,96.31
2018-12-26T03:16:57.923Z,96.69
2018-12-26T03:17:57.914Z,96.60
2018-12-26T03:18:57.905Z,95.75
2018-12-26T03:19:57.899Z,95.27
2018-12-26T03:20:57.891Z,95.27
2018-12-26T03:21:57.884Z,94.51
2018-12-26T03:22:57.872Z,94.03
2018-12-26T03:23:57.867Z,94.23
2018-12-26T03:24:57.856Z,94.03
2018-12-26T03:25:57.852Z,94.32
2018-12-26T03:26:57.838Z,95.08
2018-12-26T03:27:57.830Z,95.08
2018-12-26T03:28:57.824Z,94.70
2018-12-26T03:29:57.814Z,94.70
2018-12-26T03:30:57.807Z,94.98
2018-12-26T03:31:57.799Z,95.94
2018-12-26T03:32:57.793Z,96.50
2018-12-26T03:33:57.782Z,96.60
2018-12-26T03:34:57.774Z,96.69
2018-12-26T03:35:57.764Z,96.12
2018-12-26T03:36:57.754Z,96.69
2018-12-26T03:37:57.748Z,96.88
2018-12-26T03:38:57.739Z,95.75
2018-12-26T03:39:57.732Z,95.41
2018-12-26T03:40:57.727Z,95.12
2018-12-26T03:41:57.710Z,94.74
2018-12-26T03:42:57.708Z,94.70
2018-12-26T03:43:57.698Z,95.46
2018-12-26T03:44:57.689Z,95.41
2018-12-26T03:45:57.681Z,95.41
2018-12-26T03:46:57.672Z,95.60
2018-12-26T03:47:57.667Z,95.41
2018-12-26T03:48:57.655Z,94.93
2018-12-26T03:49:57.646Z,94.18
2018-12-26T03:50:57.637Z,93.32
2018-12-26T03:51:57.631Z,93.13
2018-12-26T03:52:57.622Z,92.56
2018-12-26T03:53:57.615Z,92.18
2018-12-26T03:54:57.607Z,92.51
2018-12-26T03:55:57.597Z,92.18
2018-12-26T03:57:05.869Z,91.80
2018-12-26T03:57:57.581Z,92.51
2018-12-26T03:58:57.574Z,93.41
2018-12-26T03:59:57.565Z,92.13
2018-12-26T04:00:57.560Z,92.42
2018-12-26T04:01:57.547Z,92.04
2018-12-26T04:02:57.543Z,91.75
2018-12-26T04:03:57.532Z,92.32
2018-12-26T04:04:57.520Z,92.61
2018-12-26T04:05:57.517Z,93.08
2018-12-26T04:06:57.509Z,92.99
2018-12-26T04:07:57.497Z,92.71
2018-12-26T04:08:57.491Z,92.32
2018-12-26T04:09:57.481Z,92.04
2018-12-26T04:10:57.472Z,92.61
2018-12-26T04:11:57.466Z,93.46
2018-12-26T04:12:57.456Z,93.18
2018-12-26T04:13:57.446Z,92.61
2018-12-26T04:14:57.438Z,92.99
2018-12-26T04:15:57.431Z,93.18
2018-12-26T04:16:57.423Z,93.08
2018-12-26T04:17:57.414Z,92.61
2018-12-26T04:18:57.405Z,92.04
2018-12-26T04:19:57.396Z,92.42
2018-12-26T04:20:57.392Z,92.13
2018-12-26T04:21:57.381Z,91.75
2018-12-26T04:22:57.380Z,90.71
2018-12-26T04:23:57.363Z,90.23
2018-12-26T04:24:57.354Z,90.33
2018-12-26T04:25:57.352Z,89.86
2018-12-26T04:26:57.344Z,90.05
2018-12-26T04:27:57.332Z,89.95
2018-12-26T04:28:57.321Z,89.95
2018-12-26T04:29:57.313Z,89.09
2018-12-26T04:30:57.308Z,89.76
2018-12-26T04:31:57.295Z,90.14
2018-12-26T04:32:57.286Z,90.23
2018-12-26T04:33:57.277Z,90.99
2018-12-26T04:34:57.267Z,91.56
2018-12-26T04:35:57.278Z,91.28
2018-12-26T04:36:57.255Z,92.04
2018-12-26T04:37:57.245Z,92.32
2018-12-26T04:38:57.235Z,91.66
2018-12-26T04:39:57.227Z,91.66
2018-12-26T04:40:57.222Z,89.76
2018-12-26T04:41:57.211Z,88.90
2018-12-26T04:42:57.205Z,89.09
2018-12-26T04:43:57.196Z,89.28
2018-12-26T04:44:57.184Z,89.76
2018-12-26T04:45:57.178Z,89.67
2018-12-26T04:46:57.168Z,89.76
2018-12-26T04:47:57.158Z,89.86
2018-12-26T04:48:57.154Z,89.86
2018-12-26T04:49:57.147Z,90.71
2018-12-26T04:50:57.136Z,90.05
2018-12-26T04:51:57.122Z,90.14
2018-12-26T04:52:57.129Z,90.52
2018-12-26T04:53:57.118Z,90.71
2018-12-26T04:54:57.098Z,90.99
2018-12-26T04:55:57.091Z,90.05
2018-12-26T04:56:57.095Z,90.14
2018-12-26T04:57:57.074Z,89.57
2018-12-26T04:58:57.065Z,89.67
2018-12-26T04:59:57.058Z,89.19
2018-12-26T05:00:57.048Z,89.86
2018-12-26T05:01:57.041Z,90.33
2018-12-26T05:02:57.033Z,89.67
2018-12-26T05:03:57.025Z,88.53
2018-12-26T05:04:57.015Z,88.53
2018-12-26T05:05:57.006Z,88.62
2018-12-26T05:06:56.998Z,87.95
2018-12-26T05:07:56.990Z,88.15
2018-12-26T05:08:56.983Z,87.67
2018-12-26T05:09:56.974Z,87.57
2018-12-26T05:10:56.965Z,87.76
2018-12-26T05:11:56.955Z,86.05
2018-12-26T05:12:56.955Z,86.53
2018-12-26T05:13:56.939Z,86.72
2018-12-26T05:14:56.933Z,86.15
2018-12-26T05:15:56.920Z,86.24
2018-12-26T05:16:56.912Z,86.15
2018-12-26T05:17:56.905Z,86.34
2018-12-26T05:18:56.897Z,86.24
2018-12-26T05:19:56.884Z,86.05
2018-12-26T05:20:56.878Z,85.11
2018-12-26T05:21:56.867Z,85.20
2018-12-26T05:22:56.860Z,86.15
2018-12-26T05:23:56.853Z,86.63
2018-12-26T05:24:56.843Z,86.82
2018-12-26T05:25:56.834Z,86.63
2018-12-26T05:26:56.825Z,86.24
2018-12-26T05:27:56.817Z,85.96
2018-12-26T05:28:56.813Z,86.91
2018-12-26T05:29:56.799Z,87.48
2018-12-26T05:30:56.793Z,87.29
2018-12-26T05:31:56.783Z,87.76
2018-12-26T05:32:56.777Z,88.15
2018-12-26T05:33:56.767Z,88.62
2018-12-26T05:34:56.758Z,88.34
2018-12-26T05:35:56.748Z,89.00
2018-12-26T05:36:56.741Z,89.95
2018-12-26T05:37:56.733Z,90.14
2018-12-26T05:38:56.724Z,89.95
2018-12-26T05:39:56.714Z,90.52
2018-12-26T05:40:56.706Z,90.33
2018-12-26T05:41:56.698Z,90.14
2018-12-26T05:42:56.687Z,91.09
2018-12-26T05:43:56.682Z,90.61
2018-12-26T05:44:56.673Z,90.14
2018-12-26T05:45:56.661Z,89.95
2018-12-26T05:46:56.651Z,89.76
2018-12-26T05:47:56.645Z,89.76
2018-12-26T05:48:56.639Z,89.57
2018-12-26T05:49:56.723Z,89.57
2018-12-26T05:50:56.621Z,89.09
2018-12-26T05:51:56.610Z,89.09
2018-12-26T05:52:56.611Z,89.19
2018-12-26T05:53:56.592Z,89.76
2018-12-26T05:54:56.581Z,89.38
2018-12-26T05:55:56.581Z,88.34
2018-12-26T05:56:56.585Z,88.53
2018-12-26T05:57:56.558Z,88.05
2018-12-26T05:58:56.552Z,87.29
2018-12-26T05:59:56.543Z,87.19
2018-12-26T06:00:56.536Z,87.57
2018-12-26T06:01:56.525Z,86.82
2018-12-26T06:02:56.521Z,86.72
2018-12-26T06:03:56.510Z,86.82
2018-12-26T06:04:56.499Z,86.53
2018-12-26T06:05:56.490Z,86.82
2018-12-26T06:06:56.486Z,86.05
2018-12-26T06:07:56.476Z,86.34
2018-12-26T06:08:56.467Z,85.39
2018-12-26T06:09:56.455Z,85.58
2018-12-26T06:10:56.453Z,85.39
2018-12-26T06:11:56.440Z,85.68
2018-12-26T06:12:56.430Z,85.11
2018-12-26T06:13:56.422Z,84.82
2018-12-26T06:14:56.417Z,84.53
2018-12-26T06:15:56.406Z,84.25
2018-12-26T06:16:56.395Z,84.91
2018-12-26T06:17:56.385Z,85.01
2018-12-26T06:18:56.383Z,85.01
2018-12-26T06:19:56.373Z,85.30
2018-12-26T06:20:56.361Z,84.44
2018-12-26T06:21:56.354Z,84.63
2018-12-26T06:22:56.343Z,84.53
2018-12-26T06:23:56.333Z,84.16
2018-12-26T06:24:56.330Z,84.25
2018-12-26T06:25:56.319Z,83.87
2018-12-26T06:26:56.311Z,83.87
2018-12-26T06:27:56.304Z,83.78
2018-12-26T06:28:56.298Z,83.59
2018-12-26T06:29:56.284Z,83.59
2018-12-26T06:30:56.277Z,83.20
2018-12-26T06:31:56.273Z,83.11
2018-12-26T06:32:56.259Z,83.01
2018-12-26T06:33:56.251Z,82.73
2018-12-26T06:34:56.241Z,83.01
2018-12-26T06:35:56.235Z,83.11
2018-12-26T06:36:56.226Z,83.20
2018-12-26T06:37:56.215Z,83.11
2018-12-26T06:38:56.206Z,83.16
2018-12-26T06:39:56.198Z,83.49
2018-12-26T06:40:56.191Z,83.68
2018-12-26T06:41:56.187Z,83.11
2018-12-26T06:42:56.174Z,83.30
2018-12-26T06:43:56.164Z,83.11
2018-12-26T06:44:56.157Z,83.20
2018-12-26T06:45:56.150Z,83.39
2018-12-26T06:46:56.139Z,83.78
2018-12-26T06:47:56.130Z,83.59
2018-12-26T06:48:56.121Z,83.26
2018-12-26T06:49:56.114Z,83.87
2018-12-26T06:50:56.104Z,84.16
2018-12-26T06:51:56.094Z,84.21
2018-12-26T06:52:56.085Z,84.49
2018-12-26T06:53:56.078Z,84.68
2018-12-26T06:54:56.067Z,85.06
2018-12-26T06:55:56.058Z,84.40
2018-12-26T06:56:56.054Z,85.44
2018-12-26T06:57:59.996Z,85.53
2018-12-26T06:58:56.034Z,85.82
2018-12-26T06:59:56.024Z,85.35
2018-12-26T07:00:56.014Z,85.35
2018-12-26T07:01:56.007Z,85.35
2018-12-26T07:02:56.000Z,85.86
2018-12-26T07:03:55.984Z,85.86
2018-12-26T07:04:55.981Z,85.53
2018-12-26T07:05:55.971Z,86.11
2018-12-26T07:06:55.963Z,86.15
2018-12-26T07:07:55.955Z,85.96
2018-12-26T07:08:55.946Z,86.24
2018-12-26T07:09:55.938Z,86.72
2018-12-26T07:10:55.924Z,86.82
2018-12-26T07:11:55.923Z,87.29
2018-12-26T07:12:55.908Z,87.29
2018-12-26T07:13:55.900Z,87.57
2018-12-26T07:14:55.892Z,87.76
2018-12-26T07:15:55.884Z,87.76
2018-12-26T07:16:55.876Z,88.05
2018-12-26T07:17:55.867Z,87.95
2018-12-26T07:18:55.864Z,88.15
2018-12-26T07:19:55.852Z,88.62
2018-12-26T07:20:55.842Z,89.47
2018-12-26T07:21:55.831Z,89.19
2018-12-26T07:22:55.819Z,89.00
2018-12-26T07:23:55.813Z,90.23
2018-12-26T07:24:55.807Z,89.67
2018-12-26T07:25:55.796Z,90.52
2018-12-26T07:26:55.787Z,90.42
2018-12-26T07:27:55.780Z,90.80
2018-12-26T07:28:55.777Z,91.56
2018-12-26T07:29:55.761Z,92.32
2018-12-26T07:30:55.752Z,92.80
2018-12-26T07:31:55.745Z,93.37
2018-12-26T07:32:55.736Z,93.18
2018-12-26T07:33:55.725Z,93.08
2018-12-26T07:34:55.721Z,92.71
2018-12-26T07:35:55.716Z,92.61
2018-12-26T07:36:55.703Z,92.90
2018-12-26T07:37:55.693Z,93.37
2018-12-26T07:38:55.682Z,92.99
2018-12-26T07:39:55.675Z,92.99
2018-12-26T07:40:55.666Z,92.71
2018-12-26T07:41:55.658Z,93.27
2018-12-26T07:42:55.650Z,94.03
2018-12-26T07:43:55.642Z,94.37
2018-12-26T07:44:55.634Z,95.31
2018-12-26T07:45:55.622Z,95.17
2018-12-26T07:46:55.617Z,95.70
2018-12-26T07:47:55.608Z,95.94
2018-12-26T07:48:55.598Z,95.84
2018-12-26T07:49:55.592Z,95.79
2018-12-26T07:50:55.580Z,95.70
2018-12-26T07:51:55.572Z,95.94
2018-12-26T07:52:55.564Z,95.84
2018-12-26T07:53:55.553Z,96.12
2018-12-26T07:54:55.545Z,96.55
2018-12-26T07:55:55.539Z,96.60
2018-12-26T07:56:55.539Z,97.27
2018-12-26T07:57:55.522Z,96.93
2018-12-26T07:58:55.513Z,97.60
2018-12-26T07:59:55.499Z,97.78
2018-12-26T08:00:55.497Z,98.26
2018-12-26T08:01:55.484Z,99.30
2018-12-26T08:02:55.476Z,99.02
2018-12-26T08:03:55.467Z,99.77
2018-12-26T08:04:55.462Z,99.68
2018-12-26T08:05:55.451Z,99.99
2018-12-26T08:06:55.442Z,99.99
2018-12-26T08:07:55.433Z,99.99
2018-12-26T08:08:55.423Z,99.99
2018-12-26T08:09:55.414Z,99.99
2018-12-26T08:10:55.425Z,99.99
2018-12-26T08:11:55.425Z,99.99
2018-12-26T08:12:55.389Z,99.99
2018-12-26T08:13:55.383Z,99.99
2018-12-26T08:14:55.374Z,99.99
2018-12-26T08:15:55.362Z,99.99
2018-12-26T08:16:55.355Z,99.99
2018-12-26T08:17:55.340Z,99.99
2018-12-26T08:18:55.335Z,99.99
2018-12-26T08:19:55.323Z,99.99
2018-12-26T08:20:55.318Z,99.99
2018-12-26T08:21:55.306Z,99.99
2018-12-26T08:22:55.298Z,99.99
2018-12-26T08:23:55.291Z,99.99
2018-12-26T08:24:55.281Z,99.99
2018-12-26T08:25:55.267Z,99.99
2018-12-26T08:26:55.269Z,99.99
2018-12-26T08:27:55.254Z,99.99
2018-12-26T08:28:55.247Z,99.99
2018-12-26T08:29:55.236Z,99.99
2018-12-26T08:30:55.231Z,99.99
2018-12-26T08:31:55.219Z,99.99
2018-12-26T08:32:55.208Z,99.99
2018-12-26T08:33:55.201Z,99.99
2018-12-26T08:34:55.192Z,99.99
2018-12-26T08:35:55.183Z,99.99
2018-12-26T08:36:55.174Z,99.99
2018-12-26T08:37:55.163Z,99.99
2018-12-26T08:38:55.155Z,99.99
2018-12-26T08:39:55.152Z,99.99
2018-12-26T08:40:55.139Z,99.99
2018-12-26T08:41:55.133Z,99.99
2018-12-26T08:42:55.121Z,99.99
2018-12-26T08:43:55.111Z,99.99
2018-12-26T08:44:55.103Z,99.99
2018-12-26T08:45:55.106Z,99.99
2018-12-26T08:46:55.084Z,99.99
2018-12-26T08:47:55.117Z,99.99
2018-12-26T08:48:55.069Z,99.99
2018-12-26T08:49:55.059Z,99.99
2018-12-26T08:50:55.050Z,99.99
2018-12-26T08:51:55.040Z,99.99
2018-12-26T08:52:55.038Z,99.99
2018-12-26T08:53:55.023Z,99.99
2018-12-26T08:54:55.017Z,99.11
2018-12-26T08:55:55.003Z,99.99
2018-12-26T08:56:54.997Z,99.58
2018-12-26T08:57:54.989Z,99.97
2018-12-26T08:58:54.978Z,99.97
2018-12-26T08:59:54.968Z,99.11
2018-12-26T09:00:54.959Z,99.40
2018-12-26T09:01:54.952Z,99.11
2018-12-26T09:02:54.943Z,98.83
2018-12-26T09:03:54.933Z,97.31
2018-12-26T09:04:54.929Z,96.74
2018-12-26T09:05:54.917Z,97.31
2018-12-26T09:06:54.909Z,97.50
2018-12-26T09:07:54.898Z,97.02
2018-12-26T09:08:54.890Z,97.02
2018-12-26T09:09:54.879Z,95.79
2018-12-26T09:10:54.869Z,97.31
2018-12-26T09:11:54.863Z,95.79
2018-12-26T09:12:54.855Z,94.84
2018-12-26T09:13:54.846Z,96.36
2018-12-26T09:14:54.840Z,96.26
2018-12-26T09:15:54.832Z,95.89
2018-12-26T09:16:54.819Z,95.60
2018-12-26T09:17:54.811Z,96.08
2018-12-26T09:18:54.800Z,95.79
2018-12-26T09:19:54.792Z,95.12
2018-12-26T09:20:54.783Z,96.26
2018-12-26T09:21:54.770Z,96.26
2018-12-26T09:22:54.764Z,96.55
2018-12-26T09:23:54.842Z,95.60
2018-12-26T09:24:54.749Z,95.98
2018-12-26T09:25:54.735Z,96.26
2018-12-26T09:26:54.724Z,95.89
2018-12-26T09:27:54.718Z,96.17
2018-12-26T09:28:54.719Z,95.31
2018-12-26T09:29:54.718Z,95.51
2018-12-26T09:30:54.702Z,95.70
2018-12-26T09:31:54.685Z,95.70
2018-12-26T09:32:54.676Z,95.60
2018-12-26T09:33:54.667Z,95.60
2018-12-26T09:34:54.658Z,95.79
2018-12-26T09:35:54.649Z,95.79
2018-12-26T09:36:54.643Z,95.98
2018-12-26T09:37:54.631Z,95.60
2018-12-26T09:38:54.623Z,95.84
2018-12-26T09:39:54.614Z,94.93
2018-12-26T09:40:54.608Z,95.41
2018-12-26T09:41:54.603Z,94.60
2018-12-26T09:42:54.588Z,94.79
2018-12-26T09:43:54.580Z,94.65
2018-12-26T09:44:54.836Z,94.65
2018-12-26T09:45:54.560Z,94.60
2018-12-26T09:46:54.554Z,94.74
2018-12-26T09:47:54.546Z,94.84
2018-12-26T09:48:54.539Z,94.46
2018-12-26T09:49:54.599Z,94.60
2018-12-26T09:50:54.537Z,94.65
2018-12-26T09:51:54.514Z,94.32
2018-12-26T09:52:54.507Z,94.84
2018-12-26T09:53:54.488Z,93.94
2018-12-26T09:54:54.483Z,94.70
2018-12-26T09:55:54.486Z,94.23
2018-12-26T09:56:54.465Z,94.42
2018-12-26T09:57:54.455Z,94.03
2018-12-26T09:58:54.448Z,94.32
2018-12-26T09:59:54.445Z,94.51
2018-12-26T10:00:54.431Z,94.70
2018-12-26T10:01:54.496Z,94.98
2018-12-26T10:02:54.412Z,94.89
2018-12-26T10:03:54.406Z,95.36
2018-12-26T10:04:54.397Z,95.08
2018-12-26T10:05:54.386Z,94.70
2018-12-26T10:06:54.384Z,94.51
2018-12-26T10:07:54.372Z,95.08
2018-12-26T10:08:54.362Z,95.27
2018-12-26T10:09:54.352Z,95.27
2018-12-26T10:10:54.346Z,95.17
2018-12-26T10:11:54.339Z,95.55
2018-12-26T10:12:54.326Z,95.55
2018-12-26T10:13:54.317Z,95.46
2018-12-26T10:14:54.309Z,95.94
2018-12-26T10:15:54.303Z,95.65
2018-12-26T10:16:54.295Z,95.65
2018-12-26T10:17:54.284Z,95.94
2018-12-26T10:18:54.277Z,95.84
2018-12-26T10:19:54.268Z,96.31
2018-12-26T10:20:54.259Z,96.22
2018-12-26T10:21:54.250Z,96.69
2018-12-26T10:22:54.241Z,96.12
2018-12-26T10:23:54.233Z,96.69
2018-12-26T10:24:54.225Z,96.79
2018-12-26T10:25:54.216Z,97.36
2018-12-26T10:26:54.216Z,97.45
2018-12-26T10:27:54.205Z,97.07
2018-12-26T10:29:00.956Z,96.50
2018-12-26T10:29:54.185Z,97.17
2018-12-26T10:30:54.174Z,96.41
2018-12-26T10:31:54.165Z,96.88
2018-12-26T10:32:54.158Z,96.79
2018-12-26T10:33:54.186Z,97.07
2018-12-26T10:34:54.144Z,97.74
2018-12-26T10:35:54.134Z,97.36
2018-12-26T10:36:54.123Z,98.02
2018-12-26T10:37:54.116Z,98.31
2018-12-26T10:38:54.108Z,97.83
2018-12-26T10:39:54.102Z,98.02
2018-12-26T10:40:54.096Z,97.92
2018-12-26T10:41:54.084Z,98.31
2018-12-26T10:42:54.076Z,99.35
2018-12-26T10:43:54.070Z,98.31
2018-12-26T10:44:54.060Z,98.97
2018-12-26T10:45:54.054Z,99.21
2018-12-26T10:46:54.041Z,99.26
2018-12-26T10:47:54.035Z,98.88
2018-12-26T10:48:54.025Z,99.69
2018-12-26T10:49:54.019Z,99.59
2018-12-26T10:50:54.018Z,99.88
2018-12-26T10:51:54.001Z,99.40
2018-12-26T10:52:53.994Z,99.50
2018-12-26T10:53:53.985Z,99.40
2018-12-26T10:54:53.977Z,99.50
2018-12-26T10:55:53.969Z,99.69
2018-12-26T10:56:53.961Z,99.30
2018-12-26T10:57:53.947Z,99.69
2018-12-26T10:58:53.945Z,99.50
2018-12-26T10:59:53.980Z,99.97
2018-12-26T11:00:53.930Z,99.88
2018-12-26T11:01:53.921Z,99.99
2018-12-26T11:02:53.908Z,99.99
2018-12-26T11:03:53.905Z,99.99
2018-12-26T11:04:53.896Z,99.78
2018-12-26T11:05:53.890Z,99.88
2018-12-26T11:06:53.880Z,99.78
2018-12-26T11:07:53.872Z,99.69
2018-12-26T11:08:53.866Z,99.99
2018-12-26T11:09:53.856Z,99.59
2018-12-26T11:10:53.854Z,99.99
2018-12-26T11:11:53.840Z,99.99
2018-12-26T11:12:53.834Z,99.99
2018-12-26T11:13:53.823Z,99.99
2018-12-26T11:14:53.817Z,99.99
2018-12-26T11:15:53.809Z,99.99
2018-12-26T11:16:53.805Z,99.99
2018-12-26T11:17:53.792Z,99.99
2018-12-26T11:18:53.782Z,99.99
2018-12-26T11:19:53.777Z,99.99
2018-12-26T11:20:53.769Z,99.99
2018-12-26T11:21:53.766Z,99.78
2018-12-26T11:22:53.749Z,98.74
2018-12-26T11:23:53.746Z,99.59
2018-12-26T11:24:53.738Z,99.50
2018-12-26T11:25:53.739Z,99.97
2018-12-26T11:26:53.720Z,98.83
2018-12-26T11:27:53.718Z,99.02
2018-12-26T11:28:53.713Z,99.11
2018-12-26T11:29:53.697Z,97.97
2018-12-26T11:30:53.687Z,97.12
2018-12-26T11:31:53.679Z,96.84
2018-12-26T11:32:53.674Z,97.31
2018-12-26T11:33:53.666Z,97.88
2018-12-26T11:34:53.661Z,97.03
2018-12-26T11:35:53.651Z,96.17
2018-12-26T11:36:53.641Z,95.51
2018-12-26T11:37:53.638Z,96.36
2018-12-26T11:38:53.626Z,96.31
2018-12-26T11:39:53.621Z,95.89
2018-12-26T11:40:53.718Z,95.89
2018-12-26T11:41:53.604Z,95.12
2018-12-26T11:42:53.595Z,95.46
2018-12-26T11:43:53.585Z,94.79
2018-12-26T11:44:53.578Z,95.75
2018-12-26T11:45:53.567Z,95.36
2018-12-26T11:46:53.563Z,95.75
2018-12-26T11:47:53.557Z,95.65
2018-12-26T11:48:53.549Z,96.41
2018-12-26T11:49:53.543Z,96.31
2018-12-26T11:50:53.533Z,96.03
2018-12-26T11:51:53.526Z,95.94
2018-12-26T11:52:53.521Z,96.12
2018-12-26T11:53:53.508Z,96.22
2018-12-26T11:54:53.502Z,96.22
2018-12-26T11:55:53.497Z,96.22
2018-12-26T11:56:53.488Z,95.65
2018-12-26T11:57:53.482Z,94.51
2018-12-26T11:58:53.472Z,94.32
2018-12-26T11:59:53.462Z,93.75
2018-12-26T12:00:53.458Z,94.42
2018-12-26T12:01:53.449Z,94.03
2018-12-26T12:02:53.560Z,92.99
2018-12-26T12:03:53.435Z,93.65
2018-12-26T12:04:53.426Z,92.99
2018-12-26T12:05:53.417Z,93.75
2018-12-26T12:06:53.414Z,93.84
2018-12-26T12:07:53.408Z,92.89
2018-12-26T12:08:53.394Z,92.22
2018-12-26T12:09:53.390Z,91.94
2018-12-26T12:10:53.379Z,92.80
2018-12-26T12:11:53.373Z,91.47
2018-12-26T12:12:53.364Z,91.56
2018-12-26T12:13:53.357Z,91.75
2018-12-26T12:14:53.350Z,92.41
2018-12-26T12:15:53.342Z,92.22
2018-12-26T12:16:53.335Z,91.94
2018-12-26T12:17:53.328Z,90.52
2018-12-26T12:18:53.319Z,92.70
2018-12-26T12:19:53.314Z,92.80
2018-12-26T12:20:53.306Z,92.41
2018-12-26T12:21:53.296Z,92.22
2018-12-26T12:22:53.288Z,91.28
2018-12-26T12:23:53.282Z,91.37
2018-12-26T12:24:53.275Z,90.70
2018-12-26T12:25:53.267Z,90.04
2018-12-26T12:26:53.257Z,91.75
2018-12-26T12:27:53.250Z,92.22
2018-12-26T12:28:53.248Z,92.70
2018-12-26T12:29:53.236Z,92.89
2018-12-26T12:30:53.229Z,92.99
2018-12-26T12:31:53.219Z,92.70
2018-12-26T12:32:53.213Z,93.18
2018-12-26T12:33:53.205Z,93.18
2018-12-26T12:34:53.198Z,93.84
2018-12-26T12:35:53.188Z,93.37
2018-12-26T12:36:53.185Z,93.84
2018-12-26T12:37:53.175Z,94.79
2018-12-26T12:38:53.169Z,93.75
2018-12-26T12:39:53.162Z,96.03
2018-12-26T12:40:53.153Z,95.08
2018-12-26T12:41:53.145Z,95.08
2018-12-26T12:42:53.139Z,94.70
2018-12-26T12:43:53.132Z,94.79
2018-12-26T12:44:53.124Z,94.89
2018-12-26T12:45:53.121Z,92.99
2018-12-26T12:46:53.113Z,93.65
2018-12-26T12:47:53.101Z,93.18
2018-12-26T12:48:53.099Z,92.22
2018-12-26T12:49:53.089Z,91.37
2018-12-26T12:50:53.080Z,90.99
2018-12-26T12:51:53.070Z,92.70
2018-12-26T12:52:53.065Z,93.75